Time;durP1;ratioP1;P1;durP2;ratioP2;P2;SDS_P1;SDS_P2;PMS_P1;PMS_P2;Temp;Humidity;BMP_temperature;BMP_pressure;BME280_temperature;BME280_humidity;BME280_pressure;Samples;Min_cycle;Max_cycle;Signal;HPM_P1;HPM_P2
2023/05/06 00:00:16;;;;;;;3.17;1.40;;;;;;;;;;1027144;28;20074;-73
2023/05/06 00:00:46;;;;;;;0.90;0.45;;;;;;;;;;1027302;28;20522;-74
2023/05/06 00:01:17;;;;;;;1.15;0.93;;;;;;;;;;1027631;28;20106;-73
2023/05/06 00:01:47;;;;;;;0.47;0.47;;;;;;;;;;1027367;28;20026;-73
2023/05/06 00:02:18;;;;;;;2.17;1.00;;;;;;;;;;1027521;28;20026;-74
2023/05/06 00:02:48;;;;;;;0.80;0.60;;;;;;;;;;1027176;28;20105;-74
2023/05/06 00:03:19;;;;;;;14.05;1.48;;;;;;;;;;1027431;28;20423;-74
2023/05/06 00:03:49;;;;;;;1.45;0.57;;;;;;;;;;1023514;29;20031;-74
2023/05/06 00:04:20;;;;;;;0.60;0.60;;;;;;;;;;1022508;29;20498;-73
2023/05/06 00:04:51;;;;;;;1.95;1.48;;;;;;;;;;1023258;29;20023;-73
2023/05/06 00:05:21;;;;;;;3.70;1.88;;;;;;;;;;1027624;28;20579;-74
2023/05/06 00:05:52;;;;;;;1.17;0.95;;;;;;;;;;1026569;28;20034;-73
2023/05/06 00:06:22;;;;;;;0.55;0.45;;;;;;;;;;1027517;28;20480;-73
2023/05/06 00:06:53;;;;;;;0.98;0.90;;;;;;;;;;1027300;28;20406;-73
2023/05/06 00:07:23;;;;;;;1.00;0.93;;;;;;;;;;1023765;28;20019;-73
2023/05/06 00:07:54;;;;;;;0.35;0.30;;;;;;;;;;1023792;28;20039;-73
2023/05/06 00:08:25;;;;;;;0.10;0.10;;;;;;;;;;1023589;28;20365;-74
2023/05/06 00:08:55;;;;;;;1.17;1.08;;;;;;;;;;1026379;28;20545;-73
2023/05/06 00:09:26;;;;;;;1.10;1.05;;;;;;;;;;1027484;28;20027;-73
2023/05/06 00:09:57;;;;;;;0.43;0.20;;;;;;;;;;1026744;28;20035;-74
2023/05/06 00:10:27;;;;;;;5.28;1.65;;;;;;;;;;1027418;28;20031;-73
2023/05/06 00:10:58;;;;;;;1.42;0.63;;;;;;;;;;1027260;28;20027;-73
2023/05/06 00:11:28;;;;;;;0.52;0.52;;;;;;;;;;1027378;28;20089;-73
2023/05/06 00:11:59;;;;;;;22.50;1.13;;;;;;;;;;1027342;28;20470;-73
2023/05/06 00:12:30;;;;;;;0.73;0.73;;;;;;;;;;1023733;29;20023;-73
2023/05/06 00:13:00;;;;;;;0.40;0.40;;;;;;;;;;1023711;28;20031;-73
2023/05/06 00:13:31;;;;;;;0.75;0.70;;;;;;;;;;1023828;29;20105;-73
2023/05/06 00:14:01;;;;;;;1.60;0.40;;;;;;;;;;1023662;28;20479;-74
2023/05/06 00:14:32;;;;;;;0.20;0.20;;;;;;;;;;1023608;28;20037;-74
2023/05/06 00:15:03;;;;;;;2.80;1.77;;;;;;;;;;1023782;28;20475;-73
2023/05/06 00:15:34;;;;;;;4.18;0.93;;;;;;;;;;1023826;28;20089;-73
2023/05/06 00:16:05;;;;;;;1.15;1.05;;;;;;;;;;1023541;28;20362;-73
2023/05/06 00:16:35;;;;;;;2.97;1.23;;;;;;;;;;1023808;28;20065;-73
2023/05/06 00:17:05;;;;;;;3.15;1.50;;;;;;;;;;1023706;29;20023;-73
2023/05/06 00:17:36;;;;;;;0.85;0.35;;;;;;;;;;1023667;29;20376;-73
2023/05/06 00:18:06;;;;;;;1.40;0.75;;;;;;;;;;1023609;29;20035;-73
2023/05/06 00:18:37;;;;;;;0.30;0.30;;;;;;;;;;1023349;29;20035;-73
2023/05/06 00:19:07;;;;;;;0.60;0.60;;;;;;;;;;1021567;29;20024;-73
2023/05/06 00:19:38;;;;;;;1.77;0.57;;;;;;;;;;1021499;29;20034;-73
2023/05/06 00:20:09;;;;;;;2.72;1.75;;;;;;;;;;1021114;28;20038;-73
2023/05/06 00:20:40;;;;;;;3.95;1.50;;;;;;;;;;1024873;28;20027;-73
2023/05/06 00:21:11;;;;;;;0.98;0.90;;;;;;;;;;1023791;28;20031;-73
2023/05/06 00:21:41;;;;;;;2.45;1.10;;;;;;;;;;1023681;29;20023;-73
2023/05/06 00:22:12;;;;;;;0.63;0.63;;;;;;;;;;1023412;29;20027;-73
2023/05/06 00:22:42;;;;;;;0.20;0.20;;;;;;;;;;1023797;28;20034;-73
2023/05/06 00:23:13;;;;;;;0.57;0.57;;;;;;;;;;1023745;28;20035;-74
2023/05/06 00:23:43;;;;;;;1.38;1.27;;;;;;;;;;1023823;28;20034;-73
2023/05/06 00:24:14;;;;;;;0.40;0.40;;;;;;;;;;1023652;29;20029;-73
2023/05/06 00:24:44;;;;;;;0.30;0.30;;;;;;;;;;1027269;28;20170;-73
2023/05/06 00:25:15;;;;;;;1.27;1.17;;;;;;;;;;1027384;28;20053;-74
2023/05/06 00:25:45;;;;;;;0.47;0.47;;;;;;;;;;1027300;28;20023;-73
2023/05/06 00:26:15;;;;;;;4.43;0.52;;;;;;;;;;1026805;28;20030;-73
2023/05/06 00:26:46;;;;;;;1.40;0.95;;;;;;;;;;1023697;29;20026;-74
2023/05/06 00:27:16;;;;;;;6.95;1.63;;;;;;;;;;1023878;28;20030;-75
2023/05/06 00:27:47;;;;;;;1.63;1.52;;;;;;;;;;1023365;28;20027;-73
2023/05/06 00:28:17;;;;;;;2.65;0.65;;;;;;;;;;1023834;28;20027;-73
2023/05/06 00:28:48;;;;;;;0.35;0.22;;;;;;;;;;1023617;28;20106;-72
2023/05/06 00:29:18;;;;;;;8.57;2.15;;;;;;;;;;1023785;28;20030;-73
2023/05/06 00:29:49;;;;;;;2.30;1.10;;;;;;;;;;1027286;28;20022;-72
2023/05/06 00:30:19;;;;;;;2.33;0.77;;;;;;;;;;1025502;28;20074;-76
2023/05/06 00:30:50;;;;;;;5.28;1.10;;;;;;;;;;1025506;28;20424;-74
2023/05/06 00:31:21;;;;;;;4.22;1.85;;;;;;;;;;1025328;28;20027;-73
2023/05/06 00:31:51;;;;;;;3.58;2.67;;;;;;;;;;1024850;28;20648;-72
2023/05/06 00:32:22;;;;;;;2.58;1.25;;;;;;;;;;1023453;29;20125;-72
2023/05/06 00:32:52;;;;;;;25.70;2.35;;;;;;;;;;1023376;29;20066;-72
2023/05/06 00:33:23;;;;;;;3.45;0.80;;;;;;;;;;1023803;29;20023;-73
2023/05/06 00:33:53;;;;;;;3.22;0.68;;;;;;;;;;1023492;28;20030;-73
2023/05/06 00:34:24;;;;;;;0.82;0.47;;;;;;;;;;1023740;29;20073;-72
2023/05/06 00:34:54;;;;;;;2.75;1.23;;;;;;;;;;1023598;28;20094;-72
2023/05/06 00:35:25;;;;;;;1.67;0.95;;;;;;;;;;1023790;28;20195;-72
2023/05/06 00:35:55;;;;;;;0.90;0.77;;;;;;;;;;1024946;28;20026;-74
2023/05/06 00:36:26;;;;;;;1.02;0.65;;;;;;;;;;1025125;28;20387;-73
2023/05/06 00:36:57;;;;;;;8.75;1.90;;;;;;;;;;1025273;28;20086;-73
2023/05/06 00:37:27;;;;;;;26.45;2.30;;;;;;;;;;1025265;28;20167;-73
2023/05/06 00:38:05;;;;;;;11.25;1.33;;;;;;;;;;1027068;28;20030;-73
2023/05/06 00:38:36;;;;;;;10.20;0.98;;;;;;;;;;1023777;28;20027;-72
2023/05/06 00:39:06;;;;;;;1.52;0.82;;;;;;;;;;1023690;28;20106;-72
2023/05/06 00:39:36;;;;;;;3.00;1.38;;;;;;;;;;1023762;28;20026;-72
2023/05/06 00:40:08;;;;;;;0.93;0.90;;;;;;;;;;1023629;28;20468;-74
2023/05/06 00:40:42;;;;;;;0.57;0.57;;;;;;;;;;1027035;28;20019;-73
2023/05/06 00:41:12;;;;;;;2.08;0.98;;;;;;;;;;1027343;28;20049;-73
2023/05/06 00:41:42;;;;;;;4.30;0.95;;;;;;;;;;1028165;28;20643;-73
2023/05/06 00:42:16;;;;;;;0.82;0.73;;;;;;;;;;1025708;28;20050;-74
2023/05/06 00:42:47;;;;;;;1.90;0.88;;;;;;;;;;1023659;28;20027;-73
2023/05/06 00:43:17;;;;;;;0.77;0.63;;;;;;;;;;1023798;28;20169;-73
2023/05/06 00:43:48;;;;;;;0.63;0.55;;;;;;;;;;1023572;28;20034;-73
2023/05/06 00:44:18;;;;;;;8.30;2.08;;;;;;;;;;1022552;29;20027;-73
2023/05/06 00:44:50;;;;;;;0.70;0.50;;;;;;;;;;1023421;28;20534;-75
2023/05/06 00:45:20;;;;;;;0.95;0.88;;;;;;;;;;1022278;29;20495;-74
2023/05/06 00:45:51;;;;;;;2.08;0.93;;;;;;;;;;1023264;29;20074;-73
2023/05/06 00:46:22;;;;;;;3.17;0.80;;;;;;;;;;1023269;29;20031;-74
2023/05/06 00:46:53;;;;;;;5.43;1.08;;;;;;;;;;1023223;29;20026;-74
2023/05/06 00:47:25;;;;;;;1.53;0.57;;;;;;;;;;1023356;29;20035;-73
2023/05/06 00:47:56;;;;;;;0.90;0.77;;;;;;;;;;1023383;29;20035;-74
2023/05/06 00:48:27;;;;;;;2.10;0.57;;;;;;;;;;1023326;29;20511;-73
2023/05/06 00:48:57;;;;;;;0.38;0.38;;;;;;;;;;1023661;28;20023;-74
2023/05/06 00:49:29;;;;;;;1.75;0.45;;;;;;;;;;1023428;29;20570;-73
2023/05/06 00:50:00;;;;;;;0.10;0.10;;;;;;;;;;1023324;29;20023;-72
2023/05/06 00:50:32;;;;;;;0.40;0.40;;;;;;;;;;1023287;29;20031;-74
2023/05/06 00:51:03;;;;;;;0.80;0.60;;;;;;;;;;1024050;28;20094;-75
2023/05/06 00:51:34;;;;;;;0.55;0.55;;;;;;;;;;1027506;28;20454;-73
2023/05/06 00:52:04;;;;;;;0.38;0.38;;;;;;;;;;1027184;28;20487;-74
2023/05/06 00:52:38;;;;;;;2.42;0.90;;;;;;;;;;1027110;28;20033;-73
2023/05/06 00:53:09;;;;;;;0.35;0.35;;;;;;;;;;1027275;28;20062;-73
2023/05/06 00:53:46;;;;;;;2.47;0.77;;;;;;;;;;1026852;28;20024;-74
2023/05/06 00:54:18;;;;;;;0.73;0.63;;;;;;;;;;1026502;28;20042;-74
2023/05/06 00:54:49;;;;;;;0.60;0.60;;;;;;;;;;1027402;28;20026;-73
2023/05/06 00:55:20;;;;;;;1.80;0.82;;;;;;;;;;1027588;28;20035;-73
2023/05/06 00:55:51;;;;;;;1.98;1.08;;;;;;;;;;1025616;28;20031;-72
2023/05/06 00:56:22;;;;;;;6.55;0.93;;;;;;;;;;1023290;28;20472;-73
2023/05/06 00:56:52;;;;;;;2.25;0.65;;;;;;;;;;1023658;28;20051;-72
2023/05/06 00:57:23;;;;;;;0.50;0.50;;;;;;;;;;1022026;29;20143;-74
2023/05/06 00:57:54;;;;;;;0.63;0.52;;;;;;;;;;1022948;28;20042;-74
2023/05/06 00:58:24;;;;;;;1.90;1.13;;;;;;;;;;1023448;28;20114;-72
2023/05/06 00:58:55;;;;;;;1.10;0.80;;;;;;;;;;1022586;29;20126;-73
2023/05/06 00:59:25;;;;;;;0.57;0.13;;;;;;;;;;1023345;29;20479;-74
2023/05/06 00:59:56;;;;;;;0.45;0.45;;;;;;;;;;1023330;29;20023;-73
2023/05/06 01:00:27;;;;;;;1.55;1.45;;;;;;;;;;1021496;29;20030;-75
2023/05/06 01:00:58;;;;;;;5.47;3.65;;;;;;;;;;1023120;29;20068;-74
2023/05/06 01:01:29;;;;;;;1.35;1.10;;;;;;;;;;1023702;28;20106;-73
2023/05/06 01:02:01;;;;;;;1.15;1.05;;;;;;;;;;1023636;28;20032;-75
2023/05/06 01:02:31;;;;;;;2.38;0.30;;;;;;;;;;1023205;29;20120;-73
2023/05/06 01:03:02;;;;;;;0.20;0.10;;;;;;;;;;1023357;29;20112;-72
2023/05/06 01:03:33;;;;;;;2.55;1.63;;;;;;;;;;1023069;29;20031;-74
2023/05/06 01:04:03;;;;;;;1.95;0.85;;;;;;;;;;1022997;28;20502;-73
2023/05/06 01:04:34;;;;;;;0.73;0.55;;;;;;;;;;1023280;29;20024;-72
2023/05/06 01:05:05;;;;;;;1.00;0.57;;;;;;;;;;1022685;29;20077;-73
2023/05/06 01:05:47;;;;;;;0.93;0.40;;;;;;;;;;1023296;29;20054;-73
2023/05/06 01:06:42;;;;;;;1.88;0.82;;;;;;;;;;1023743;28;20031;-72
2023/05/06 01:07:25;;;;;;;0.55;0.45;;;;;;;;;;1023532;28;20364;-74
2023/05/06 01:08:02;;;;;;;0.45;0.35;;;;;;;;;;1023398;29;20058;-74
2023/05/06 01:08:59;;;;;;;1.00;0.68;;;;;;;;;;1022829;29;20110;-75
2023/05/06 01:09:29;;;;;;;0.43;0.43;;;;;;;;;;1020366;28;20515;-74
2023/05/06 01:10:06;;;;;;;5.97;0.85;;;;;;;;;;1022223;28;20126;-74
2023/05/06 01:10:54;;;;;;;0.35;0.35;;;;;;;;;;1022351;29;20019;-76
2023/05/06 01:11:27;;;;;;;0.63;0.55;;;;;;;;;;1023708;28;20395;-74
2023/05/06 01:12:10;;;;;;;0.85;0.60;;;;;;;;;;1027171;28;20081;-75
2023/05/06 01:13:00;;;;;;;0.90;0.82;;;;;;;;;;1027429;28;20553;-75
2023/05/06 01:13:45;;;;;;;0.45;0.10;;;;;;;;;;1026126;28;20114;-75
2023/05/06 01:14:23;;;;;;;1.05;0.70;;;;;;;;;;1025461;28;20058;-74
2023/05/06 01:14:58;;;;;;;0.52;0.30;;;;;;;;;;1023908;28;20041;-74
2023/05/06 01:15:31;;;;;;;0.95;0.85;;;;;;;;;;1024331;28;20023;-74
2023/05/06 01:16:03;;;;;;;0.82;0.55;;;;;;;;;;1023616;28;20035;-74
2023/05/06 01:16:36;;;;;;;1.05;0.80;;;;;;;;;;1022619;29;20023;-75
2023/05/06 01:17:09;;;;;;;0.90;0.90;;;;;;;;;;1027055;28;20461;-75
2023/05/06 01:17:49;;;;;;;8.35;0.70;;;;;;;;;;1027318;28;20019;-74
2023/05/06 01:18:24;;;;;;;1.13;0.88;;;;;;;;;;1026829;28;20027;-74
2023/05/06 01:18:56;;;;;;;1.25;1.15;;;;;;;;;;1025001;28;20059;-74
2023/05/06 01:19:50;;;;;;;1.27;0.52;;;;;;;;;;1023623;28;20479;-75
2023/05/06 01:20:20;;;;;;;5.13;1.13;;;;;;;;;;1024021;29;20062;-76
2023/05/06 01:20:58;;;;;;;1.17;0.68;;;;;;;;;;1024741;29;20087;-74
2023/05/06 01:21:33;;;;;;;0.10;0.10;;;;;;;;;;1022687;29;20035;-75
2023/05/06 01:22:07;;;;;;;2.38;0.63;;;;;;;;;;1022713;29;20491;-75
2023/05/06 01:22:38;;;;;;;1.38;1.30;;;;;;;;;;1023185;29;20031;-75
2023/05/06 01:23:10;;;;;;;0.95;0.73;;;;;;;;;;1023402;29;20027;-74
2023/05/06 01:23:54;;;;;;;0.32;0.32;;;;;;;;;;1023890;29;20542;-75
2023/05/06 01:24:33;;;;;;;0.75;0.60;;;;;;;;;;1023766;29;20019;-74
2023/05/06 01:25:04;;;;;;;0.77;0.50;;;;;;;;;;1022748;29;20083;-75
2023/05/06 01:25:35;;;;;;;1.83;1.40;;;;;;;;;;1023820;28;20031;-73
2023/05/06 01:26:05;;;;;;;0.22;0.22;;;;;;;;;;1023648;28;20027;-73
2023/05/06 01:26:36;;;;;;;0.70;0.65;;;;;;;;;;1023686;28;20031;-73
2023/05/06 01:27:07;;;;;;;0.20;0.20;;;;;;;;;;1023651;28;20122;-74
2023/05/06 01:27:37;;;;;;;0.22;0.22;;;;;;;;;;1022944;29;20050;-72
2023/05/06 01:28:11;;;;;;;1.25;1.15;;;;;;;;;;1023930;29;20023;-72
2023/05/06 01:28:44;;;;;;;0.95;0.35;;;;;;;;;;1023428;29;20096;-73
2023/05/06 01:29:15;;;;;;;0.00;0.00;;;;;;;;;;1022406;29;20039;-74
2023/05/06 01:29:46;;;;;;;1.08;0.38;;;;;;;;;;1023658;28;20034;-75
2023/05/06 01:30:18;;;;;;;1.13;0.47;;;;;;;;;;1023409;28;20070;-74
2023/05/06 01:30:56;;;;;;;1.67;1.20;;;;;;;;;;1021931;29;20027;-73
2023/05/06 01:31:39;;;;;;;1.92;1.13;;;;;;;;;;1020762;29;20059;-74
2023/05/06 01:32:28;;;;;;;12.68;0.68;;;;;;;;;;1023228;29;20024;-74
2023/05/06 01:33:10;;;;;;;0.47;0.30;;;;;;;;;;1021768;29;20027;-74
2023/05/06 01:33:49;;;;;;;0.08;0.08;;;;;;;;;;1022465;29;20023;-73
2023/05/06 01:34:26;;;;;;;1.73;0.63;;;;;;;;;;1026951;28;20027;-72
2023/05/06 01:35:05;;;;;;;0.43;0.30;;;;;;;;;;1025611;28;20777;-76
2023/05/06 01:35:38;;;;;;;0.68;0.68;;;;;;;;;;1025056;28;20032;-74
2023/05/06 01:37:10;;;;;;;0.63;0.43;;;;;;;;;;1018965;29;20059;-75
2023/05/06 01:37:40;;;;;;;;;;;;;;;;;;1022431;28;20053;-75
2023/05/06 01:38:11;;;;;;;7.93;0.73;;;;;;;;;;1021299;29;19962;-74
2023/05/06 01:38:42;;;;;;;8.85;1.05;;;;;;;;;;1021926;29;20070;-74
2023/05/06 01:39:19;;;;;;;2.08;0.82;;;;;;;;;;1022087;28;20062;-76
2023/05/06 01:39:54;;;;;;;0.00;0.00;;;;;;;;;;1026426;28;20038;-74
2023/05/06 01:40:26;;;;;;;2.17;1.02;;;;;;;;;;1027312;28;20038;-75
2023/05/06 01:40:57;;;;;;;0.40;0.40;;;;;;;;;;1025471;28;20046;-74
2023/05/06 01:41:30;;;;;;;0.20;0.20;;;;;;;;;;1025192;28;20026;-73
2023/05/06 01:42:01;;;;;;;0.43;0.32;;;;;;;;;;1023252;29;20023;-73
2023/05/06 01:42:33;;;;;;;1.35;0.65;;;;;;;;;;1023261;29;20027;-73
2023/05/06 01:43:06;;;;;;;7.25;1.35;;;;;;;;;;1024145;29;20599;-75
2023/05/06 01:43:39;;;;;;;0.50;0.35;;;;;;;;;;1023791;28;20066;-74
2023/05/06 01:44:10;;;;;;;1.70;0.57;;;;;;;;;;1027145;28;20026;-75
2023/05/06 01:44:42;;;;;;;1.88;0.98;;;;;;;;;;1025690;28;20499;-73
2023/05/06 01:45:15;;;;;;;0.95;0.80;;;;;;;;;;1024098;28;20065;-74
2023/05/06 01:45:51;;;;;;;1.05;0.65;;;;;;;;;;1025505;28;20029;-74
2023/05/06 01:46:23;;;;;;;0.32;0.30;;;;;;;;;;1030716;23;20040;-74
2023/05/06 01:46:55;;;;;;;5.63;0.60;;;;;;;;;;1025029;28;20038;-74
2023/05/06 01:47:25;;;;;;;0.28;0.28;;;;;;;;;;1027273;28;20054;-75
2023/05/06 01:47:56;;;;;;;0.28;0.28;;;;;;;;;;1027355;28;20070;-75
2023/05/06 01:48:34;;;;;;;3.13;0.40;;;;;;;;;;1026464;28;20455;-76
2023/05/06 01:49:09;;;;;;;2.63;0.85;;;;;;;;;;1025790;28;20519;-75
2023/05/06 01:49:39;;;;;;;1.35;1.10;;;;;;;;;;1026274;28;20027;-75
2023/05/06 01:50:10;;;;;;;2.35;1.00;;;;;;;;;;1025587;28;20027;-74
2023/05/06 01:50:45;;;;;;;0.68;0.47;;;;;;;;;;1025392;28;20041;-75
2023/05/06 01:51:20;;;;;;;1.17;0.60;;;;;;;;;;1027668;28;20023;-75
2023/05/06 01:51:53;;;;;;;3.90;1.48;;;;;;;;;;1025245;28;20030;-75
2023/05/06 01:52:25;;;;;;;0.82;0.80;;;;;;;;;;1025207;28;20060;-74
2023/05/06 01:52:59;;;;;;;14.85;1.27;;;;;;;;;;1025344;28;20029;-74
2023/05/06 01:53:30;;;;;;;0.20;0.20;;;;;;;;;;1021239;29;20027;-75
2023/05/06 01:54:01;;;;;;;0.88;0.88;;;;;;;;;;1020937;29;20043;-75
2023/05/06 01:54:32;;;;;;;0.90;0.40;;;;;;;;;;1021963;29;20023;-74
2023/05/06 01:55:03;;;;;;;2.85;0.38;;;;;;;;;;1019697;29;20532;-75
2023/05/06 01:55:33;;;;;;;0.38;0.38;;;;;;;;;;1026295;28;20035;-73
2023/05/06 01:56:04;;;;;;;1.98;0.70;;;;;;;;;;1024779;28;20055;-75
2023/05/06 01:56:35;;;;;;;13.82;0.90;;;;;;;;;;1024818;28;20078;-72
2023/05/06 01:57:08;;;;;;;2.95;0.80;;;;;;;;;;1025964;28;20533;-74
2023/05/06 01:57:38;;;;;;;0.13;0.13;;;;;;;;;;1024336;29;20018;-74
2023/05/06 01:58:09;;;;;;;0.20;0.20;;;;;;;;;;1023837;29;20110;-74
2023/05/06 01:58:39;;;;;;;1.30;0.80;;;;;;;;;;1024341;28;20027;-74
2023/05/06 01:59:10;;;;;;;1.13;1.02;;;;;;;;;;1026895;28;20037;-75
2023/05/06 01:59:46;;;;;;;1.55;0.73;;;;;;;;;;1024890;28;20515;-74
2023/05/06 02:00:17;;;;;;;1.00;0.85;;;;;;;;;;1024686;28;20130;-74
2023/05/06 02:00:56;;;;;;;0.52;0.10;;;;;;;;;;1023716;28;20024;-77
2023/05/06 02:01:29;;;;;;;2.67;1.35;;;;;;;;;;1024744;28;20027;-75
2023/05/06 02:02:01;;;;;;;0.75;0.25;;;;;;;;;;1022160;28;20551;-74
2023/05/06 02:02:32;;;;;;;0.32;0.32;;;;;;;;;;1023130;29;20027;-75
2023/05/06 02:03:03;;;;;;;1.90;1.80;;;;;;;;;;1022885;29;20027;-73
2023/05/06 02:03:33;;;;;;;5.75;1.05;;;;;;;;;;1021236;29;20142;-73
2023/05/06 02:04:04;;;;;;;1.40;0.80;;;;;;;;;;1021090;29;20038;-73
2023/05/06 02:04:34;;;;;;;6.22;3.13;;;;;;;;;;1022701;29;20086;-74
2023/05/06 02:05:05;;;;;;;0.40;0.40;;;;;;;;;;1022875;29;20540;-75
2023/05/06 02:05:36;;;;;;;0.30;0.22;;;;;;;;;;1021679;29;20067;-74
2023/05/06 02:06:15;;;;;;;0.85;0.47;;;;;;;;;;1025002;28;20411;-74
2023/05/06 02:06:49;;;;;;;0.25;0.20;;;;;;;;;;1026606;28;20031;-75
2023/05/06 02:07:19;;;;;;;0.35;0.35;;;;;;;;;;1026231;28;20066;-73
2023/05/06 02:07:50;;;;;;;5.75;0.88;;;;;;;;;;1025445;28;20101;-76
2023/05/06 02:08:20;;;;;;;0.40;0.30;;;;;;;;;;1026593;28;20027;-74
2023/05/06 02:08:51;;;;;;;4.82;2.17;;;;;;;;;;1025196;28;20655;-75
2023/05/06 02:09:23;;;;;;;0.15;0.15;;;;;;;;;;1027711;28;20041;-74
2023/05/06 02:09:53;;;;;;;2.88;1.02;;;;;;;;;;1025064;28;20117;-74
2023/05/06 02:10:24;;;;;;;0.35;0.20;;;;;;;;;;1025278;28;20023;-76
2023/05/06 02:10:55;;;;;;;3.83;0.52;;;;;;;;;;1025535;28;20066;-75
2023/05/06 02:11:25;;;;;;;0.43;0.43;;;;;;;;;;1025684;28;20057;-74
2023/05/06 02:11:56;;;;;;;0.08;0.08;;;;;;;;;;1023677;28;20027;-76
2023/05/06 02:12:29;;;;;;;0.77;0.65;;;;;;;;;;1023472;28;20395;-75
2023/05/06 02:13:00;;;;;;;0.32;0.17;;;;;;;;;;1021701;29;20067;-75
2023/05/06 02:13:30;;;;;;;1.65;0.40;;;;;;;;;;1023989;28;20027;-75
2023/05/06 02:14:01;;;;;;;1.27;0.47;;;;;;;;;;1025795;28;20070;-75
2023/05/06 02:14:32;;;;;;;0.52;0.47;;;;;;;;;;1025075;28;20500;-76
2023/05/06 02:15:04;;;;;;;1.85;0.38;;;;;;;;;;1025528;28;20514;-75
2023/05/06 02:15:36;;;;;;;21.90;1.15;;;;;;;;;;1025527;28;20082;-74
2023/05/06 02:16:07;;;;;;;2.45;0.85;;;;;;;;;;1026214;28;20027;-75
2023/05/06 02:16:38;;;;;;;4.18;1.23;;;;;;;;;;1025426;28;20050;-75
2023/05/06 02:17:08;;;;;;;1.42;0.43;;;;;;;;;;1022116;29;20035;-75
2023/05/06 02:17:39;;;;;;;0.90;0.55;;;;;;;;;;1021939;29;20031;-75
2023/05/06 02:18:10;;;;;;;4.07;0.40;;;;;;;;;;1021270;28;20023;-75
2023/05/06 02:18:40;;;;;;;1.40;0.55;;;;;;;;;;1026003;28;20578;-75
2023/05/06 02:19:11;;;;;;;0.60;0.20;;;;;;;;;;1025245;28;20031;-74
2023/05/06 02:19:41;;;;;;;2.03;1.17;;;;;;;;;;1025841;28;20031;-74
2023/05/06 02:20:12;;;;;;;0.90;0.70;;;;;;;;;;1025735;28;20038;-76
2023/05/06 02:20:43;;;;;;;0.65;0.20;;;;;;;;;;1022794;29;20579;-74
2023/05/06 02:21:14;;;;;;;0.70;0.57;;;;;;;;;;1022136;29;20058;-74
2023/05/06 02:21:44;;;;;;;0.93;0.63;;;;;;;;;;1021205;29;20070;-74
2023/05/06 02:22:15;;;;;;;0.30;0.15;;;;;;;;;;1022999;29;20186;-74
2023/05/06 02:22:45;;;;;;;1.23;0.93;;;;;;;;;;1025647;28;20027;-74
2023/05/06 02:23:16;;;;;;;6.13;1.52;;;;;;;;;;1023930;28;20333;-76
2023/05/06 02:23:47;;;;;;;0.75;0.30;;;;;;;;;;1025590;28;20402;-75
2023/05/06 02:24:18;;;;;;;1.05;0.40;;;;;;;;;;1025402;28;20027;-77
2023/05/06 02:25:30;;;;;;;1.40;0.82;;;;;;;;;;1022138;28;20098;-74
2023/05/06 02:26:01;;;;;;;1.30;0.35;;;;;;;;;;1024204;28;20546;-76
2023/05/06 02:26:31;;;;;;;1.02;0.85;;;;;;;;;;1024095;28;20030;-75
2023/05/06 02:27:03;;;;;;;5.65;1.27;;;;;;;;;;1024694;28;20122;-74
2023/05/06 02:27:33;;;;;;;3.80;0.93;;;;;;;;;;1025146;28;20058;-74
2023/05/06 02:28:04;;;;;;;1.20;0.65;;;;;;;;;;1024136;28;20128;-74
2023/05/06 02:28:34;;;;;;;2.03;0.85;;;;;;;;;;1024530;28;20545;-75
2023/05/06 02:29:05;;;;;;;2.40;0.90;;;;;;;;;;1025574;28;20453;-75
2023/05/06 02:29:35;;;;;;;1.33;0.60;;;;;;;;;;1025885;28;20464;-75
2023/05/06 02:30:06;;;;;;;1.80;0.80;;;;;;;;;;1025395;28;20376;-74
2023/05/06 02:30:36;;;;;;;1.42;1.05;;;;;;;;;;1025645;28;20042;-76
2023/05/06 02:31:07;;;;;;;4.15;1.40;;;;;;;;;;1023164;28;20129;-74
2023/05/06 02:31:38;;;;;;;4.07;1.20;;;;;;;;;;1025668;28;20042;-74
2023/05/06 02:32:11;;;;;;;1.98;1.02;;;;;;;;;;1026022;28;20074;-74
2023/05/06 02:32:41;;;;;;;1.58;1.02;;;;;;;;;;1021278;29;20027;-73
2023/05/06 02:33:12;;;;;;;6.85;0.65;;;;;;;;;;1017505;29;20059;-72
2023/05/06 02:33:43;;;;;;;0.95;0.35;;;;;;;;;;1018226;29;20032;-74
2023/05/06 02:34:15;;;;;;;0.70;0.60;;;;;;;;;;1018141;29;20123;-75
2023/05/06 02:34:45;;;;;;;4.00;2.55;;;;;;;;;;1021441;28;21261;-72
2023/05/06 02:35:16;;;;;;;2.30;0.60;;;;;;;;;;1025856;28;20554;-73
2023/05/06 02:35:47;;;;;;;1.08;0.80;;;;;;;;;;1020955;29;20082;-75
2023/05/06 02:36:18;;;;;;;2.28;0.63;;;;;;;;;;1019756;29;20027;-75
2023/05/06 02:36:48;;;;;;;1.38;1.23;;;;;;;;;;1020760;29;20038;-74
2023/05/06 02:37:19;;;;;;;5.40;1.60;;;;;;;;;;1020962;29;20082;-74
2023/05/06 02:37:50;;;;;;;1.05;0.30;;;;;;;;;;1022481;29;20034;-73
2023/05/06 02:38:21;;;;;;;1.00;0.63;;;;;;;;;;1026492;28;20509;-77
2023/05/06 02:38:54;;;;;;;0.10;0.10;;;;;;;;;;1022253;29;20113;-75
2023/05/06 02:39:25;;;;;;;1.13;0.63;;;;;;;;;;1023477;29;20503;-74
2023/05/06 02:39:56;;;;;;;0.60;0.43;;;;;;;;;;1023461;29;20027;-74
2023/05/06 02:40:41;;;;;;;3.90;0.98;;;;;;;;;;1023189;28;20031;-75
2023/05/06 02:41:12;;;;;;;3.13;1.20;;;;;;;;;;1025177;28;20104;-73
2023/05/06 02:41:43;;;;;;;1.27;0.88;;;;;;;;;;1026830;28;20443;-76
2023/05/06 02:42:14;;;;;;;2.50;0.98;;;;;;;;;;1026400;28;20452;-73
2023/05/06 02:42:48;;;;;;;3.30;0.70;;;;;;;;;;1026029;28;20041;-76
2023/05/06 02:43:24;;;;;;;2.38;1.55;;;;;;;;;;1023033;29;20058;-73
2023/05/06 02:43:55;;;;;;;0.57;0.47;;;;;;;;;;1019732;29;20484;-74
2023/05/06 02:44:26;;;;;;;1.05;0.77;;;;;;;;;;1020449;29;20024;-75
2023/05/06 02:44:56;;;;;;;0.73;0.45;;;;;;;;;;1019028;29;20023;-73
2023/05/06 02:45:28;;;;;;;1.27;0.93;;;;;;;;;;1020464;29;20064;-74
2023/05/06 02:45:59;;;;;;;6.38;1.65;;;;;;;;;;1017525;29;20828;-75
2023/05/06 02:46:30;;;;;;;0.38;0.38;;;;;;;;;;1021837;28;20047;-75
2023/05/06 02:47:02;;;;;;;0.17;0.17;;;;;;;;;;1026002;28;20444;-73
2023/05/06 02:47:35;;;;;;;3.40;0.70;;;;;;;;;;1025869;28;20035;-76
2023/05/06 02:48:06;;;;;;;0.20;0.20;;;;;;;;;;1025702;28;20034;-74
2023/05/06 02:48:36;;;;;;;1.02;0.70;;;;;;;;;;1026188;28;20277;-76
2023/05/06 02:49:07;;;;;;;1.35;0.52;;;;;;;;;;1022319;28;20087;-74
2023/05/06 02:49:38;;;;;;;1.67;0.50;;;;;;;;;;1026998;28;20023;-74
2023/05/06 02:50:08;;;;;;;0.28;0.28;;;;;;;;;;1026789;28;20492;-75
2023/05/06 02:50:40;;;;;;;4.03;0.77;;;;;;;;;;1026878;28;20023;-75
2023/05/06 02:51:11;;;;;;;0.73;0.40;;;;;;;;;;1027534;28;20033;-75
2023/05/06 02:51:42;;;;;;;8.50;2.30;;;;;;;;;;1026133;28;20010;-74
2023/05/06 02:52:13;;;;;;;2.72;0.88;;;;;;;;;;1026124;28;20046;-75
2023/05/06 02:52:44;;;;;;;0.40;0.13;;;;;;;;;;1022880;29;20078;-73
2023/05/06 02:53:17;;;;;;;0.65;0.65;;;;;;;;;;1021010;28;20094;-73
2023/05/06 02:53:48;;;;;;;0.73;0.40;;;;;;;;;;1023581;29;20023;-74
2023/05/06 02:54:19;;;;;;;1.83;1.17;;;;;;;;;;1021642;29;20122;-72
2023/05/06 02:54:51;;;;;;;2.03;1.25;;;;;;;;;;1023168;28;20098;-73
2023/05/06 02:55:22;;;;;;;1.73;1.13;;;;;;;;;;1025298;28;20886;-74
2023/05/06 02:55:53;;;;;;;1.05;0.50;;;;;;;;;;1027333;28;20037;-72
2023/05/06 02:56:26;;;;;;;7.18;1.42;;;;;;;;;;1025226;28;20019;-74
2023/05/06 02:56:57;;;;;;;0.65;0.45;;;;;;;;;;1022091;29;20197;-73
2023/05/06 02:57:27;;;;;;;2.95;1.25;;;;;;;;;;1022556;29;20029;-73
2023/05/06 02:57:58;;;;;;;3.85;1.27;;;;;;;;;;1022388;29;20035;-72
2023/05/06 02:58:31;;;;;;;0.20;0.20;;;;;;;;;;1020420;29;20571;-75
2023/05/06 02:59:02;;;;;;;1.15;0.50;;;;;;;;;;1023722;29;20471;-73
2023/05/06 02:59:33;;;;;;;1.13;0.57;;;;;;;;;;1022930;29;20144;-73
2023/05/06 03:00:05;;;;;;;0.30;0.30;;;;;;;;;;1024291;28;20086;-73
2023/05/06 03:00:39;;;;;;;0.38;0.38;;;;;;;;;;1025993;28;20096;-77
2023/05/06 03:01:10;;;;;;;7.82;1.27;;;;;;;;;;1024613;28;20019;-75
2023/05/06 03:01:41;;;;;;;1.23;0.55;;;;;;;;;;1025905;28;20027;-74
2023/05/06 03:02:11;;;;;;;1.23;0.35;;;;;;;;;;1026997;28;20076;-72
2023/05/06 03:02:42;;;;;;;0.30;0.10;;;;;;;;;;1025425;28;20475;-78
2023/05/06 03:03:13;;;;;;;0.50;0.40;;;;;;;;;;1027073;28;20042;-73
2023/05/06 03:03:43;;;;;;;1.75;0.20;;;;;;;;;;1026658;28;20099;-73
2023/05/06 03:04:14;;;;;;;1.13;0.68;;;;;;;;;;1026010;28;20065;-73
2023/05/06 03:04:45;;;;;;;0.60;0.40;;;;;;;;;;1026666;28;20073;-74
2023/05/06 03:05:15;;;;;;;0.55;0.30;;;;;;;;;;1026005;28;20030;-74
2023/05/06 03:05:49;;;;;;;1.73;0.98;;;;;;;;;;1025713;28;20018;-74
2023/05/06 03:06:19;;;;;;;2.83;0.75;;;;;;;;;;1027081;28;20037;-74
2023/05/06 03:06:50;;;;;;;0.75;0.63;;;;;;;;;;1025896;28;20121;-74
2023/05/06 03:07:21;;;;;;;0.65;0.30;;;;;;;;;;1026489;28;20039;-76
2023/05/06 03:07:52;;;;;;;0.90;0.55;;;;;;;;;;1025319;28;20495;-73
2023/05/06 03:08:23;;;;;;;0.50;0.25;;;;;;;;;;1025972;28;20023;-74
2023/05/06 03:08:53;;;;;;;3.17;1.48;;;;;;;;;;1022167;28;20035;-74
2023/05/06 03:09:24;;;;;;;2.10;0.65;;;;;;;;;;1021450;29;20036;-73
2023/05/06 03:09:59;;;;;;;0.40;0.30;;;;;;;;;;1020899;28;20475;-74
2023/05/06 03:10:30;;;;;;;0.93;0.40;;;;;;;;;;1022530;29;20118;-72
2023/05/06 03:11:00;;;;;;;2.50;0.95;;;;;;;;;;1023319;28;20431;-74
2023/05/06 03:11:31;;;;;;;0.75;0.55;;;;;;;;;;1022836;29;20066;-74
2023/05/06 03:12:02;;;;;;;1.85;0.85;;;;;;;;;;1020409;29;20039;-76
2023/05/06 03:12:33;;;;;;;1.15;0.70;;;;;;;;;;1023291;29;20027;-73
2023/05/06 03:13:03;;;;;;;4.07;1.35;;;;;;;;;;1024198;29;20023;-75
2023/05/06 03:13:34;;;;;;;5.85;1.52;;;;;;;;;;1023389;28;20396;-74
2023/05/06 03:14:04;;;;;;;2.40;0.80;;;;;;;;;;1026521;28;20080;-73